Wednesday, April 16, 2014
13:33 UTC
  |  Log In   |  Register Free
Airport Search:

Foothills Regional Airport
(KMRN)

Foothills Regional Airport Diagram
No Airport Diagram Available

FAA data valid effective April 3, 2014 until May 29, 2014 (unless otherwise noted).

 
 
 
 
 
 
 
 
 
 
 
 
 
 

Current Aviation Weather for Foothills Regional Airport (KMRN)

The most recent METAR observation for KMRN was updated at: 1255 UTC
METAR Summary (Translated METAR)
KMRN
161255Z AUTO 01003KT 10SM CLR 03/M07 A3037 RMK AO2 T00261069
KHKY
(11.8 nm SE from KMRN)
161253Z 04004KT 10SM CLR 02/M06 A3033 RMK AO2 SLP268 T00221061
TAF Summary (Translated TAF)
KHKY
(11.8 nm SE from KMRN)
161132Z 1612/1712 03006KT P6SM SKC FM161500 05009KT P6SM SKC FM162100 08008KT P6SM SKC FM170100 07004KT P6SM SKC FM170400 02004KT P6SM SCT250
  Airport Weather Conditions for KMRN

 Current Weather at MRN
36° F
Fair
North winds at 4.6 mph
MRN NOAA Radar

Pressure: 30.36 in
Humidity: 53%
Wind: North at 4.6 MPH (4 KT)
Dew Point: 19.8°F
Visibility: 10.00 mi


Airport Weather Forecast for KMRN

Translated METAR and TAF for KMRN
Translated METAR for KMRN (1333 UTC 16 April 2014)
found at http://aviationweather.gov/adds/metars/
 
METAR text: KMRN 161315Z AUTO 36004KT 10SM CLR 04/M07 A3037 RMK AO2 T00351071
Conditions at: KMRN (MORGANTON/LENOIR, NC, US) observed 1315 UTC 16 April 2014
Temperature: 3.5°C (38°F)
Dewpoint: -7.1°C (19°F) [RH = 46%]
Pressure (altimeter): 30.37 inches Hg (1028.5 mb)
Winds: from the N (360 degrees) at 5 MPH (4 knots; 2.1 m/s)
Visibility: 10 or more miles (16+ km)
Ceiling: at least 12,000 feet AGL
Clouds: sky clear below 12,000 feet AGL
Weather: automated observation with no human augmentation;
there may or may not be significant weather present at this time
Translated TAF for KMRN

There is no translated TAF available for this airport

Find All Airport Services Find A Hotel Find A Rental Car Find A Golf Course Find A Restaurant $100 Hamburger



FBO's on the Field
FBO Company Facility Photos Services Transportation Aviation Fuel Prices: Prices include tax
Catering Weather Repair Courtesy Rental Type 100LL JetA JetA+ MOGAS 8087
 
Foothills Aviation

This FBO has not yet been rated
FS:Shell
Last Updated: Mar-26
Login to update fuel prices
SS:
Contact Foothills AviationMore FBO Information
 
Add another FBO Facility Photos Catering Weather Repair Courtesy Rental Type 100LL JetA JetA+ MOGAS 8087
Services Transportation Aviation Fuel Prices: Prices include tax


GlobalAir.com Airport Resource Center model-print
model-print
model-print
model-print